Overview Statistics Trail Chart Weather Telemetry Raw packets
 

This is the latest recevied weather packets stored in our database for station/object K7PMV-13. If no packets are shown the sender has not sent any weather packets the latest 10 day(s).

<< 62 63 64 65 66 67 68 >>
Time Temp. Humidity Pressure Rain* Wind** Luminosity Snow
1777232198 24.44° C 30% 1007.5 hPa 0 mm - 944 W/m² -
1777231896 24.44° C 30% 1007.4 hPa 0 mm - 946 W/m² -
1777231593 23.89° C 29% 1007.5 hPa 0 mm - 946 W/m² -
1777231282 24.44° C 29% 1007.7 hPa 0 mm - 956 W/m² -
1777230979 23.89° C 30% 1007.7 hPa 0 mm - 947 W/m² -
1777230676 23.89° C 30% 1007.7 hPa 0 mm - 947 W/m² -
1777230374 23.89° C 29% 1007.7 hPa 0 mm - 947 W/m² -
1777227916 22.78° C 31% 1008 hPa 0 mm - 911 W/m² -
1777227544 23.33° C 32% 1007.9 hPa 0 mm - 895 W/m² -
1777227239 22.78° C 32% 1007.9 hPa 0 mm - 831 W/m² -
1777226937 22.78° C 32% 1008 hPa 0 mm - 772 W/m² -
1777226627 22.78° C 33% 1007.8 hPa 0 mm - 721 W/m² -
1777226324 22.78° C 32% 1007.9 hPa 0 mm - 443 W/m² -
1777226021 22.22° C 34% 1007.8 hPa 0 mm - 364 W/m² -
1777225718 22.22° C 33% 1007.9 hPa 0 mm - 638 W/m² -
1777225416 22.22° C 33% 1008 hPa 0 mm - 715 W/m² -
1777225077 22.22° C 34% 1008 hPa 0 mm - 749 W/m² -
1777224775 22.22° C 34% 1008 hPa 0 mm - 772 W/m² -
1777224472 21.67° C 35% 1008.1 hPa 0 mm - 0 W/m² -
1777173731 25° C 26% 1003.1 hPa 0 mm - 0 W/m² -
1777173428 25° C 26% 1003.1 hPa 0 mm - 0 W/m² -
1777173111 25° C 27% 1003.1 hPa 0 mm - 0 W/m² -
1777172800 25.56° C 27% 1003.1 hPa 0 mm - 0 W/m² -
1777172497 25.56° C 27% 1003 hPa 0 mm - 0 W/m² -
1777172195 25.56° C 27% 1003 hPa 0 mm - 0 W/m² -

* Rain latest hour (hover to see other rain measurements)
** Current wind speed in m/s (hover to see current wind gust speed)